Ophir, Oregon
Current Conditions -  °F | °C
As of 9:56 PM on Friday 24 Oct 2014 (Local Time) from KBOK Reporting Station
Few Clouds Few Clouds  
Wind Chill: 62°   Ceiling: Unl
Heat Index: 62°   Visibility: 9mi
Dew Point: 55°   Wind: 7mph
Humidity: 78%   Direction: NA
Pressure: 29.67"   Gusts: NA
Location:  42.56°N, 124.39°W
Report Text: KBOK 250456Z AUTO VRB06KT 9SM FEW042 17/13 A2967 RMK AO2 T01660127 SLP046
Loading
Personal Weather Stations






























Interactive Weather Map New forecast layout! Learn more

10-Day Weather Forecast

Advertisements
Track Severe Weather on mobile